createdAt,value
2018-09-17T00:00:17.673Z,15.11
2018-09-17T00:01:17.654Z,15.08
2018-09-17T00:02:17.660Z,15.03
2018-09-17T00:03:17.647Z,15.06
2018-09-17T00:04:17.643Z,15.03
2018-09-17T00:05:17.638Z,15.05
2018-09-17T00:06:17.646Z,15.03
2018-09-17T00:07:17.635Z,15.01
2018-09-17T00:08:17.632Z,14.91
2018-09-17T00:09:17.627Z,14.86
2018-09-17T00:10:17.620Z,14.94
2018-09-17T00:11:17.620Z,14.74
2018-09-17T00:12:17.615Z,14.80
2018-09-17T00:13:17.618Z,14.87
2018-09-17T00:14:17.608Z,14.94
2018-09-17T00:15:17.607Z,15.02
2018-09-17T00:16:17.602Z,15.05
2018-09-17T00:17:17.594Z,14.91
2018-09-17T00:18:17.594Z,14.88
2018-09-17T00:19:17.590Z,15.08
2018-09-17T00:20:17.589Z,14.98
2018-09-17T00:21:17.582Z,15.02
2018-09-17T00:22:17.579Z,15.08
2018-09-17T00:23:17.578Z,15.05
2018-09-17T00:24:17.577Z,15.09
2018-09-17T00:25:17.568Z,15.11
2018-09-17T00:26:17.560Z,15.08
2018-09-17T00:27:17.562Z,15.03
2018-09-17T00:28:17.561Z,15.03
2018-09-17T00:29:17.554Z,15.03
2018-09-17T00:30:17.553Z,15.06
2018-09-17T00:31:17.561Z,15.05
2018-09-17T00:32:17.544Z,15.09
2018-09-17T00:33:17.543Z,15.08
2018-09-17T00:34:17.534Z,15.13
2018-09-17T00:35:17.536Z,15.11
2018-09-17T00:36:17.532Z,15.23
2018-09-17T00:37:17.530Z,15.17
2018-09-17T00:38:17.530Z,15.28
2018-09-17T00:39:17.516Z,15.35
2018-09-17T00:40:17.521Z,15.35
2018-09-17T00:41:17.514Z,15.33
2018-09-17T00:42:17.510Z,15.30
2018-09-17T00:43:17.511Z,15.27
2018-09-17T00:44:17.512Z,15.27
2018-09-17T00:45:17.499Z,15.27
2018-09-17T00:46:17.498Z,15.33
2018-09-17T00:47:17.510Z,15.31
2018-09-17T00:48:17.492Z,15.30
2018-09-17T00:49:17.486Z,15.38
2018-09-17T00:50:17.482Z,15.54
2018-09-17T00:51:17.478Z,15.54
2018-09-17T00:52:17.478Z,15.49
2018-09-17T00:53:17.477Z,15.45
2018-09-17T00:54:17.469Z,15.52
2018-09-17T00:55:17.470Z,15.48
2018-09-17T00:56:17.462Z,15.45
2018-09-17T00:57:17.461Z,15.60
2018-09-17T00:58:17.455Z,15.43
2018-09-17T00:59:17.457Z,15.35
2018-09-17T01:00:17.446Z,15.38
2018-09-17T01:01:17.515Z,15.38
2018-09-17T01:02:17.509Z,15.36
2018-09-17T01:03:17.439Z,15.31
2018-09-17T01:04:17.434Z,15.21
2018-09-17T01:05:17.435Z,15.19
2018-09-17T01:06:17.430Z,15.23
2018-09-17T01:07:17.429Z,15.02
2018-09-17T01:08:17.424Z,15.08
2018-09-17T01:09:17.417Z,15.03
2018-09-17T01:10:17.416Z,14.90
2018-09-17T01:11:17.413Z,14.91
2018-09-17T01:12:17.412Z,14.78
2018-09-17T01:13:17.509Z,14.88
2018-09-17T01:14:17.410Z,14.90
2018-09-17T01:15:17.397Z,14.90
2018-09-17T01:16:17.404Z,15.05
2018-09-17T01:17:17.388Z,15.17
2018-09-17T01:18:17.391Z,15.31
2018-09-17T01:19:17.394Z,15.38
2018-09-17T01:20:17.384Z,15.38
2018-09-17T01:21:17.376Z,15.27
2018-09-17T01:22:17.376Z,15.23
2018-09-17T01:23:17.371Z,15.17
2018-09-17T01:24:17.372Z,15.23
2018-09-17T01:25:17.366Z,15.21
2018-09-17T01:26:17.376Z,15.30
2018-09-17T01:27:17.355Z,15.09
2018-09-17T01:28:17.389Z,15.19
2018-09-17T01:29:17.350Z,15.12
2018-09-17T02:06:35.654Z,14.38
2018-09-17T02:07:35.622Z,14.43
2018-09-17T02:08:35.659Z,14.34
2018-09-17T02:09:35.646Z,14.42
2018-09-17T02:10:35.597Z,14.38
2018-09-17T02:11:35.592Z,14.38
2018-09-17T02:12:35.584Z,14.38
2018-09-17T02:13:35.580Z,14.27
2018-09-17T02:14:35.568Z,14.19
2018-09-17T02:15:35.569Z,14.19
2018-09-17T02:16:35.558Z,14.13
2018-09-17T02:17:35.553Z,14.13
2018-09-17T02:18:35.550Z,14.09
2018-09-17T02:19:35.552Z,14.02
2018-09-17T02:20:35.540Z,14.12
2018-09-17T02:21:35.533Z,14.10
2018-09-17T02:22:35.530Z,14.09
2018-09-17T02:23:35.527Z,14.07
2018-09-17T02:24:35.522Z,13.94
2018-09-17T02:25:35.516Z,14.09
2018-09-17T02:26:35.513Z,14.04
2018-09-17T02:27:35.507Z,14.02
2018-09-17T02:28:35.507Z,14.10
2018-09-17T02:29:35.506Z,14.10
2018-09-17T02:30:35.496Z,14.12
2018-09-17T02:31:35.492Z,14.09
2018-09-17T02:32:35.491Z,13.96
2018-09-17T02:33:35.488Z,14.04
2018-09-17T02:34:35.480Z,13.92
2018-09-17T02:35:35.476Z,13.88
2018-09-17T02:36:35.473Z,13.83
2018-09-17T02:37:35.471Z,13.92
2018-09-17T02:38:35.467Z,13.96
2018-09-17T02:39:35.470Z,14.01
2018-09-17T02:40:35.459Z,14.06
2018-09-17T02:41:35.457Z,14.12
2018-09-17T02:42:35.457Z,14.12
2018-09-17T02:43:35.449Z,14.17
2018-09-17T02:44:35.444Z,14.24
2018-09-17T02:45:35.439Z,14.38
2018-09-17T02:46:35.437Z,14.32
2018-09-17T02:47:35.430Z,14.21
2018-09-17T02:48:35.430Z,14.20
2018-09-17T02:49:35.426Z,14.14
2018-09-17T02:50:35.420Z,14.04
2018-09-17T02:51:35.420Z,13.89
2018-09-17T02:52:35.413Z,13.96
2018-09-17T02:53:35.427Z,13.95
2018-09-17T02:54:35.411Z,14.01
2018-09-17T02:55:35.404Z,14.04
2018-09-17T02:56:35.408Z,14.01
2018-09-17T02:57:35.398Z,14.04
2018-09-17T02:58:35.397Z,13.96
2018-09-17T02:59:35.393Z,14.01
2018-09-17T03:00:35.383Z,14.06
2018-09-17T03:01:35.383Z,14.17
2018-09-17T03:02:35.388Z,14.13
2018-09-17T03:03:35.379Z,14.10
2018-09-17T03:04:35.373Z,14.10
2018-09-17T03:05:35.371Z,14.14
2018-09-17T03:06:35.367Z,14.16
2018-09-17T03:07:35.363Z,14.12
2018-09-17T03:08:35.355Z,14.13
2018-09-17T03:09:35.355Z,14.20
2018-09-17T03:10:35.357Z,14.28
2018-09-17T03:11:35.348Z,14.38
2018-09-17T03:12:35.343Z,14.46
2018-09-17T03:13:35.342Z,14.46
2018-09-17T03:14:35.340Z,14.39
2018-09-17T03:15:35.331Z,14.53
2018-09-17T03:16:35.329Z,14.61
2018-09-17T03:17:35.327Z,14.71
2018-09-17T03:18:35.320Z,14.74
2018-09-17T03:19:35.317Z,14.90
2018-09-17T03:20:35.315Z,14.93
2018-09-17T03:21:35.309Z,15.02
2018-09-17T03:22:35.307Z,15.02
2018-09-17T03:23:35.305Z,15.12
2018-09-17T03:24:35.373Z,15.06
2018-09-17T03:25:35.298Z,15.11
2018-09-17T03:26:35.294Z,15.26
2018-09-17T03:27:35.290Z,15.30
2018-09-17T03:28:35.290Z,15.27
2018-09-17T03:29:35.283Z,15.33
2018-09-17T03:30:35.295Z,15.31
2018-09-17T03:31:35.277Z,15.39
2018-09-17T03:32:35.280Z,15.46
2018-09-17T03:33:35.273Z,15.46
2018-09-17T03:34:35.268Z,15.52
2018-09-17T03:35:35.268Z,15.43
2018-09-17T03:36:35.263Z,15.49
2018-09-17T03:37:35.265Z,15.46
2018-09-17T03:38:35.281Z,15.42
2018-09-17T03:39:35.254Z,15.43
2018-09-17T03:40:35.251Z,15.41
2018-09-17T03:41:35.257Z,15.39
2018-09-17T03:42:35.245Z,15.42
2018-09-17T03:43:35.242Z,15.33
2018-09-17T03:44:35.236Z,15.35
2018-09-17T03:45:35.228Z,15.41
2018-09-17T03:46:35.267Z,15.36
2018-09-17T03:47:35.229Z,15.38
2018-09-17T03:48:35.219Z,15.41
2018-09-17T03:49:35.232Z,15.45
2018-09-17T03:50:35.217Z,15.36
2018-09-17T03:51:35.214Z,15.38
2018-09-17T03:52:35.210Z,15.38
2018-09-17T03:53:35.206Z,15.43
2018-09-17T03:54:35.204Z,15.43
2018-09-17T03:55:35.205Z,15.48
2018-09-17T03:56:35.196Z,15.52
2018-09-17T03:57:35.196Z,15.48
2018-09-17T03:58:35.191Z,15.46
2018-09-17T03:59:35.191Z,15.45
2018-09-17T04:00:35.190Z,15.48
2018-09-17T04:01:35.185Z,15.52
2018-09-17T04:02:35.180Z,15.61
2018-09-17T04:03:35.176Z,15.57
2018-09-17T04:04:35.172Z,15.61
2018-09-17T04:05:35.170Z,15.66
2018-09-17T04:06:35.166Z,15.70
2018-09-17T04:07:35.162Z,15.84
2018-09-17T04:08:35.165Z,15.86
2018-09-17T04:09:35.159Z,15.96
2018-09-17T04:10:35.154Z,15.92
2018-09-17T04:11:35.154Z,15.92
2018-09-17T04:12:35.173Z,15.76
2018-09-17T04:13:35.145Z,15.64
2018-09-17T04:14:35.147Z,15.54
2018-09-17T04:15:35.141Z,15.48
2018-09-17T04:16:35.137Z,15.51
2018-09-17T04:17:35.135Z,15.46
2018-09-17T04:18:35.129Z,15.51
2018-09-17T04:19:35.133Z,15.57
2018-09-17T04:20:35.123Z,15.57
2018-09-17T04:21:35.127Z,15.59
2018-09-17T04:22:35.115Z,15.59
2018-09-17T04:23:35.115Z,15.64
2018-09-17T04:24:35.113Z,15.64
2018-09-17T04:25:35.113Z,15.81
2018-09-17T04:26:35.108Z,15.67
2018-09-17T04:27:35.103Z,15.72
2018-09-17T04:28:35.119Z,15.66
2018-09-17T04:29:35.109Z,15.75
2018-09-17T04:30:35.108Z,15.72
2018-09-17T04:31:35.153Z,15.68
2018-09-17T04:32:35.117Z,15.74
2018-09-17T04:33:35.097Z,15.72
2018-09-17T04:34:35.104Z,15.64
2018-09-17T04:35:35.104Z,15.70
2018-09-17T04:36:35.104Z,15.68
2018-09-17T04:37:35.113Z,15.57
2018-09-17T04:38:35.118Z,15.61
2018-09-17T04:39:35.212Z,15.63
2018-09-17T04:40:35.136Z,15.56
2018-09-17T04:41:35.075Z,15.51
2018-09-17T04:42:35.090Z,15.41
2018-09-17T04:43:35.653Z,15.42
2018-09-17T04:44:35.075Z,15.48
2018-09-17T04:45:35.078Z,15.42
2018-09-17T04:46:35.080Z,15.49
2018-09-17T04:47:35.084Z,15.38
2018-09-17T04:48:35.100Z,15.35
2018-09-17T04:49:35.050Z,15.38
2018-09-17T04:50:35.106Z,15.36
2018-09-17T04:51:35.038Z,15.33
2018-09-17T04:52:35.048Z,15.35
2018-09-17T04:53:35.056Z,15.30
2018-09-17T04:54:35.064Z,15.30
2018-09-17T04:55:35.041Z,15.17
2018-09-17T04:56:35.035Z,15.09
2018-09-17T04:57:35.029Z,15.06
2018-09-17T04:58:35.046Z,15.09
2018-09-17T04:59:35.005Z,15.08
2018-09-17T05:00:35.002Z,14.90
2018-09-17T05:01:34.999Z,14.95
2018-09-17T05:02:34.997Z,14.87
2018-09-17T05:03:34.997Z,14.88
2018-09-17T05:04:34.990Z,14.88
2018-09-17T05:05:34.993Z,14.72
2018-09-17T05:06:34.982Z,14.78
2018-09-17T05:07:34.997Z,14.65
2018-09-17T05:08:34.971Z,14.71
2018-09-17T05:09:35.008Z,14.54
2018-09-17T05:10:35.000Z,14.56
2018-09-17T05:11:34.973Z,14.53
2018-09-17T05:12:34.978Z,14.54
2018-09-17T05:13:35.052Z,14.44
2018-09-17T05:14:34.960Z,14.47
2018-09-17T05:15:34.948Z,14.44
2018-09-17T05:16:34.953Z,14.46
2018-09-17T05:17:34.949Z,14.50
2018-09-17T05:18:34.939Z,14.49
2018-09-17T05:19:34.945Z,14.47
2018-09-17T05:20:34.966Z,14.44
2018-09-17T05:21:34.933Z,14.44
2018-09-17T05:22:34.932Z,14.49
2018-09-17T05:23:34.952Z,14.52
2018-09-17T05:24:34.928Z,14.50
2018-09-17T05:25:34.926Z,14.44
2018-09-17T05:26:34.915Z,14.44
2018-09-17T05:27:34.913Z,14.44
2018-09-17T05:28:34.932Z,14.50
2018-09-17T05:29:34.905Z,14.52
2018-09-17T05:30:34.901Z,14.56
2018-09-17T05:31:34.899Z,14.53
2018-09-17T05:32:34.898Z,14.72
2018-09-17T05:33:34.895Z,14.67
2018-09-17T05:34:34.897Z,14.62
2018-09-17T05:35:34.885Z,14.64
2018-09-17T05:36:34.881Z,14.65
2018-09-17T05:37:34.881Z,14.74
2018-09-17T05:38:34.878Z,14.68
2018-09-17T05:39:34.869Z,14.74
2018-09-17T05:40:34.874Z,14.74
2018-09-17T05:41:34.864Z,14.81
2018-09-17T05:42:34.866Z,14.88
2018-09-17T05:43:34.854Z,15.02
2018-09-17T05:44:34.879Z,14.95
2018-09-17T05:45:34.850Z,15.03
2018-09-17T05:46:34.845Z,15.03
2018-09-17T05:47:34.846Z,15.23
2018-09-17T05:48:35.152Z,15.27
2018-09-17T05:49:34.846Z,15.38
2018-09-17T05:50:34.832Z,15.41
2018-09-17T05:51:34.838Z,15.45
2018-09-17T05:52:34.825Z,15.39
2018-09-17T05:53:34.834Z,15.43
2018-09-17T05:54:34.822Z,15.57
2018-09-17T05:55:34.824Z,15.70
2018-09-17T05:56:34.817Z,15.81
2018-09-17T05:57:34.813Z,15.85
2018-09-17T05:58:34.810Z,15.93
2018-09-17T05:59:34.874Z,15.86
2018-09-17T06:00:34.806Z,15.96
2018-09-17T06:01:34.802Z,15.97
2018-09-17T06:02:34.802Z,16.03
2018-09-17T06:03:34.797Z,15.96
2018-09-17T06:04:34.795Z,15.89
2018-09-17T06:05:34.838Z,15.93
2018-09-17T06:06:34.793Z,16.00
2018-09-17T06:07:34.792Z,16.11
2018-09-17T06:08:34.779Z,16.16
2018-09-17T06:09:34.786Z,16.11
2018-09-17T06:10:34.790Z,16.20
2018-09-17T06:11:34.776Z,16.12
2018-09-17T06:12:34.778Z,16.12
2018-09-17T06:13:34.772Z,16.11
2018-09-17T06:14:34.803Z,16.11
2018-09-17T06:15:34.770Z,16.14
2018-09-17T06:16:34.766Z,16.09
2018-09-17T06:17:34.863Z,16.11
2018-09-17T06:18:34.761Z,16.04
2018-09-17T06:19:34.763Z,15.92
2018-09-17T06:20:34.759Z,16.04
2018-09-17T06:21:34.754Z,15.97
2018-09-17T06:22:34.759Z,15.88
2018-09-17T06:23:34.750Z,15.93
2018-09-17T06:24:34.751Z,15.93
2018-09-17T06:25:34.751Z,15.86
2018-09-17T06:26:34.812Z,15.72
2018-09-17T06:27:34.745Z,15.82
2018-09-17T06:28:34.787Z,15.92
2018-09-17T06:29:34.752Z,15.99
2018-09-17T06:30:34.736Z,16.12
2018-09-17T06:31:34.734Z,16.01
2018-09-17T06:32:34.730Z,16.07
2018-09-17T06:33:34.733Z,16.01
2018-09-17T06:34:34.730Z,16.18
2018-09-17T06:35:34.729Z,16.35
2018-09-17T06:36:34.726Z,16.41
2018-09-17T06:37:34.746Z,16.50
2018-09-17T06:38:34.723Z,16.52
2018-09-17T06:39:34.725Z,16.49
2018-09-17T06:40:34.718Z,16.40
2018-09-17T06:41:34.730Z,16.48
2018-09-17T06:42:34.717Z,16.63
2018-09-17T06:43:34.715Z,16.75
2018-09-17T06:44:34.717Z,17.00
2018-09-17T06:45:34.713Z,16.92
2018-09-17T06:46:34.710Z,16.74
2018-09-17T06:47:34.710Z,16.52
2018-09-17T06:48:34.709Z,16.48
2018-09-17T06:49:34.723Z,16.56
2018-09-17T06:50:34.701Z,16.58
2018-09-17T06:51:34.710Z,16.63
2018-09-17T06:52:34.705Z,16.53
2018-09-17T06:53:34.709Z,16.44
2018-09-17T06:54:34.697Z,16.42
2018-09-17T06:55:34.699Z,16.48
2018-09-17T06:56:34.695Z,16.71
2018-09-17T06:57:34.692Z,16.58
2018-09-17T06:58:34.693Z,16.67
2018-09-17T06:59:34.722Z,16.74
2018-09-17T07:00:34.727Z,16.78
2018-09-17T07:01:34.732Z,16.83
2018-09-17T07:02:34.690Z,16.68
2018-09-17T07:03:34.688Z,16.65
2018-09-17T07:04:34.689Z,16.73
2018-09-17T07:05:34.699Z,16.78
2018-09-17T07:06:34.686Z,16.99
2018-09-17T07:07:34.686Z,17.18
2018-09-17T07:08:34.683Z,17.22
2018-09-17T07:09:34.686Z,17.14
2018-09-17T07:10:34.681Z,17.15
2018-09-17T07:11:34.682Z,16.92
2018-09-17T07:12:34.682Z,16.90
2018-09-17T07:13:34.679Z,16.83
2018-09-17T07:14:34.677Z,16.83
2018-09-17T07:15:34.675Z,16.88
2018-09-17T07:16:34.674Z,16.96
2018-09-17T07:17:34.674Z,16.92
2018-09-17T07:18:34.674Z,16.98
2018-09-17T07:19:34.673Z,17.14
2018-09-17T07:20:34.667Z,16.96
2018-09-17T07:21:34.690Z,17.08
2018-09-17T07:22:34.667Z,17.10
2018-09-17T07:23:34.669Z,17.20
2018-09-17T07:24:34.668Z,17.25
2018-09-17T07:25:34.666Z,17.28
2018-09-17T07:26:34.672Z,17.22
2018-09-17T07:27:34.676Z,17.32
2018-09-17T07:28:34.666Z,17.33
2018-09-17T07:29:34.665Z,17.41
2018-09-17T07:30:34.663Z,17.38
2018-09-17T07:31:34.665Z,17.29
2018-09-17T07:32:34.685Z,17.23
2018-09-17T07:33:34.666Z,17.29
2018-09-17T07:34:34.678Z,17.40
2018-09-17T07:35:34.664Z,17.41
2018-09-17T07:36:34.720Z,17.41
2018-09-17T07:37:34.654Z,17.44
2018-09-17T07:38:34.659Z,17.47
2018-09-17T07:39:34.662Z,17.40
2018-09-17T07:40:34.661Z,17.43
2018-09-17T07:41:34.658Z,17.46
2018-09-17T07:42:34.661Z,17.57
2018-09-17T07:43:34.661Z,17.82
2018-09-17T07:44:34.659Z,17.63
2018-09-17T07:45:34.668Z,17.69
2018-09-17T07:46:34.659Z,17.46
2018-09-17T07:47:34.659Z,17.59
2018-09-17T07:48:34.661Z,17.50
2018-09-17T07:49:34.661Z,17.51
2018-09-17T07:50:34.668Z,17.43
2018-09-17T07:51:34.660Z,17.66
2018-09-17T07:52:34.667Z,17.66
2018-09-17T07:53:34.661Z,17.70
2018-09-17T07:54:34.659Z,17.63
2018-09-17T07:55:34.668Z,17.44
2018-09-17T07:56:34.661Z,17.47
2018-09-17T07:57:34.669Z,17.63
2018-09-17T07:58:34.659Z,17.69
2018-09-17T07:59:34.663Z,17.63
2018-09-17T08:00:34.665Z,17.89
2018-09-17T08:01:34.661Z,17.81
2018-09-17T08:02:34.664Z,17.92
2018-09-17T08:03:34.662Z,17.94
2018-09-17T08:04:34.663Z,18.00
2018-09-17T08:05:34.705Z,18.17
2018-09-17T08:06:34.669Z,18.22
2018-09-17T08:07:34.667Z,18.10
2018-09-17T08:08:34.664Z,18.22
2018-09-17T08:09:34.669Z,18.06
2018-09-17T08:10:34.670Z,18.21
2018-09-17T08:11:34.669Z,18.17
2018-09-17T08:12:34.666Z,18.19
2018-09-17T08:13:34.670Z,18.13
2018-09-17T08:14:34.669Z,18.24
2018-09-17T08:15:34.669Z,18.33
2018-09-17T08:16:34.674Z,18.43
2018-09-17T08:17:34.675Z,18.50
2018-09-17T08:18:34.672Z,18.67
2018-09-17T08:19:34.707Z,18.68
2018-09-17T08:20:34.677Z,18.83
2018-09-17T08:21:34.676Z,18.97
2018-09-17T08:22:34.678Z,19.23
2018-09-17T08:23:34.681Z,19.17
2018-09-17T08:24:34.721Z,19.24
2018-09-17T08:25:34.723Z,19.36
2018-09-17T08:26:34.681Z,19.46
2018-09-17T08:27:34.685Z,19.31
2018-09-17T08:28:34.680Z,19.54
2018-09-17T08:29:34.681Z,19.83
2018-09-17T08:30:34.717Z,19.95
2018-09-17T08:31:34.692Z,20.12
2018-09-17T08:32:34.691Z,20.05
2018-09-17T08:33:34.693Z,20.21
2018-09-17T08:34:34.693Z,20.64
2018-09-17T08:35:34.702Z,21.04
2018-09-17T08:36:34.704Z,22.16
2018-09-17T08:37:34.700Z,22.44
2018-09-17T08:38:34.703Z,21.83
2018-09-17T08:39:34.711Z,21.78
2018-09-17T08:40:34.721Z,21.95
2018-09-17T08:41:34.710Z,21.46
2018-09-17T08:42:34.720Z,21.11
2018-09-17T08:43:34.723Z,20.56
2018-09-17T08:44:34.727Z,20.66
2018-09-17T08:45:34.766Z,20.38
2018-09-17T08:46:34.780Z,20.58
2018-09-17T08:47:34.748Z,21.09
2018-09-17T08:48:34.744Z,21.46
2018-09-17T08:49:34.741Z,21.91
2018-09-17T08:50:34.750Z,21.85
2018-09-17T08:51:34.756Z,21.76
2018-09-17T08:52:34.758Z,22.16
2018-09-17T08:53:34.763Z,22.82
2018-09-17T08:54:34.766Z,24.32
2018-09-17T08:55:34.772Z,24.57
2018-09-17T08:56:34.983Z,25.16
2018-09-17T08:57:34.784Z,26.11
2018-09-17T08:58:34.788Z,26.57
2018-09-17T08:59:34.794Z,26.68
2018-09-17T09:00:34.802Z,27.28
2018-09-17T09:01:34.810Z,27.57
2018-09-17T09:02:34.816Z,28.17
2018-09-17T09:03:34.825Z,27.89
2018-09-17T09:04:34.835Z,28.23
2018-09-17T09:05:34.841Z,28.69
2018-09-17T09:06:34.864Z,29.23
2018-09-17T09:07:35.846Z,28.81
2018-09-17T09:08:36.741Z,29.65
2018-09-17T09:09:36.583Z,29.78
2018-09-17T09:10:34.974Z,29.16
2018-09-17T09:11:36.057Z,29.84
2018-09-17T09:12:34.910Z,30.00
2018-09-17T09:13:34.924Z,30.43
2018-09-17T09:14:34.954Z,30.96
2018-09-17T09:15:35.043Z,31.17
2018-09-17T09:16:36.195Z,31.12
2018-09-17T09:17:35.353Z,31.45
2018-09-17T09:18:36.222Z,31.93
2018-09-17T09:19:35.958Z,31.09
2018-09-17T09:20:35.960Z,30.30
2018-09-17T09:21:36.500Z,30.43
2018-09-17T09:22:35.413Z,30.75
2018-09-17T09:23:37.017Z,31.54
2018-09-17T09:24:35.049Z,32.07
2018-09-17T09:25:35.073Z,31.84
2018-09-17T09:26:35.083Z,31.23
2018-09-17T09:27:35.094Z,30.83
2018-09-17T09:28:35.104Z,30.90
2018-09-17T09:29:35.120Z,31.17
2018-09-17T09:30:35.138Z,31.40
2018-09-17T09:31:35.149Z,31.39
2018-09-17T09:32:35.164Z,30.98
2018-09-17T09:33:35.191Z,30.38
2018-09-17T09:34:35.190Z,29.86
2018-09-17T09:35:35.206Z,30.49
2018-09-17T09:36:35.228Z,31.04
2018-09-17T09:37:35.233Z,30.43
2018-09-17T09:38:35.244Z,31.04
2018-09-17T09:39:35.265Z,31.17
2018-09-17T09:40:35.283Z,31.21
2018-09-17T09:41:35.288Z,31.38
2018-09-17T09:42:35.302Z,31.87
2018-09-17T09:43:35.310Z,32.24
2018-09-17T09:44:35.331Z,32.07
2018-09-17T09:45:35.343Z,32.25
2018-09-17T09:46:35.357Z,32.96
2018-09-17T09:47:35.370Z,33.33
2018-09-17T09:48:35.389Z,32.49
2018-09-17T09:49:35.414Z,31.96
2018-09-17T09:50:35.416Z,31.43
2018-09-17T09:51:35.433Z,32.62
2018-09-17T09:52:35.461Z,32.66
2018-09-17T09:53:35.460Z,32.64
2018-09-17T09:54:35.469Z,32.39
2018-09-17T09:55:35.491Z,33.36
2018-09-17T09:56:35.501Z,33.51
2018-09-17T09:57:35.510Z,33.17
2018-09-17T09:58:35.531Z,32.11
2018-09-17T09:59:35.554Z,32.02
2018-09-17T10:00:35.556Z,32.10
2018-09-17T10:01:35.572Z,33.31
2018-09-17T10:02:35.590Z,33.94
2018-09-17T10:03:35.605Z,33.85
2018-09-17T10:04:35.623Z,32.59
2018-09-17T10:05:35.629Z,32.15
2018-09-17T10:06:35.649Z,31.70
2018-09-17T10:07:35.665Z,31.92
2018-09-17T10:08:35.677Z,33.17
2018-09-17T10:09:35.687Z,34.07
2018-09-17T10:10:35.707Z,34.39
2018-09-17T10:11:35.773Z,33.92
2018-09-17T10:12:35.739Z,33.39
2018-09-17T10:13:35.756Z,33.65
2018-09-17T10:14:35.764Z,34.00
2018-09-17T10:15:35.789Z,33.82
2018-09-17T10:16:35.794Z,33.86
2018-09-17T10:17:35.811Z,34.01
2018-09-17T10:18:35.825Z,34.04
2018-09-17T10:19:35.840Z,33.36
2018-09-17T10:20:35.857Z,34.29
2018-09-17T10:21:35.868Z,34.61
2018-09-17T10:22:35.885Z,34.36
2018-09-17T10:23:35.897Z,35.25
2018-09-17T10:24:35.922Z,34.76
2018-09-17T10:25:35.963Z,34.22
2018-09-17T10:26:35.950Z,34.41
2018-09-17T10:27:35.962Z,35.18
2018-09-17T10:28:35.979Z,34.69
2018-09-17T10:29:35.991Z,35.20
2018-09-17T10:30:36.012Z,35.25
2018-09-17T10:31:36.020Z,34.89
2018-09-17T10:32:36.036Z,34.50
2018-09-17T10:33:36.056Z,34.00
2018-09-17T10:34:36.067Z,33.11
2018-09-17T10:35:36.089Z,32.93
2018-09-17T10:36:36.100Z,32.71
2018-09-17T10:37:36.117Z,32.73
2018-09-17T10:38:36.130Z,33.46
2018-09-17T10:39:36.159Z,34.09
2018-09-17T10:40:36.165Z,34.54
2018-09-17T10:41:36.181Z,34.27
2018-09-17T10:42:36.192Z,34.61
2018-09-17T10:43:36.214Z,34.00
2018-09-17T10:44:36.227Z,33.30
2018-09-17T10:45:36.241Z,33.19
2018-09-17T10:46:36.254Z,33.08
2018-09-17T10:47:36.271Z,33.68
2018-09-17T10:48:36.283Z,33.73
2018-09-17T10:49:36.301Z,34.20
2018-09-17T10:50:36.316Z,34.29
2018-09-17T10:51:36.329Z,34.95
2018-09-17T10:52:36.346Z,35.44
2018-09-17T10:53:36.363Z,35.42
2018-09-17T10:54:36.372Z,34.84
2018-09-17T10:55:36.411Z,35.25
2018-09-17T10:56:36.411Z,34.89
2018-09-17T10:57:36.422Z,35.42
2018-09-17T10:58:36.445Z,35.66
2018-09-17T10:59:36.456Z,33.94
2018-09-17T11:00:36.474Z,34.51
2018-09-17T11:01:36.491Z,34.54
2018-09-17T11:02:36.500Z,34.45
2018-09-17T11:03:36.517Z,34.89
2018-09-17T11:04:36.529Z,35.30
2018-09-17T11:05:36.545Z,35.44
2018-09-17T11:06:36.565Z,35.54
2018-09-17T11:07:36.571Z,34.44
2018-09-17T11:08:36.609Z,35.20
2018-09-17T11:09:36.608Z,35.95
2018-09-17T11:10:36.626Z,34.56
2018-09-17T11:11:36.644Z,33.70
2018-09-17T11:12:36.654Z,34.01
2018-09-17T11:13:36.669Z,33.53
2018-09-17T11:14:36.684Z,33.63
2018-09-17T11:15:36.701Z,34.27
2018-09-17T11:16:36.716Z,34.09
2018-09-17T11:17:36.766Z,33.85
2018-09-17T11:18:36.750Z,33.36
2018-09-17T11:19:36.761Z,34.19
2018-09-17T11:20:36.781Z,32.89
2018-09-17T11:21:36.796Z,33.53
2018-09-17T11:22:36.810Z,33.71
2018-09-17T11:23:36.833Z,34.36
2018-09-17T11:24:36.840Z,34.64
2018-09-17T11:25:36.852Z,35.08
2018-09-17T11:26:36.872Z,34.19
2018-09-17T11:27:36.895Z,34.95
2018-09-17T11:28:36.903Z,35.57
2018-09-17T11:29:36.928Z,36.01
2018-09-17T11:30:36.939Z,34.79
2018-09-17T11:31:36.950Z,34.60
2018-09-17T11:32:36.965Z,33.94
2018-09-17T11:33:36.983Z,33.97
2018-09-17T11:34:36.994Z,33.29
2018-09-17T11:35:37.006Z,32.55
2018-09-17T11:36:37.018Z,32.96
2018-09-17T11:37:37.043Z,33.27
2018-09-17T11:38:37.054Z,33.65
2018-09-17T11:39:37.070Z,33.87
2018-09-17T11:40:37.089Z,33.42
2018-09-17T11:41:37.096Z,32.54
2018-09-17T11:42:37.117Z,32.27
2018-09-17T11:43:37.132Z,33.04
2018-09-17T11:44:37.143Z,32.42
2018-09-17T11:45:37.155Z,32.73
2018-09-17T11:46:37.177Z,31.35
2018-09-17T11:47:37.182Z,31.40
2018-09-17T11:48:37.205Z,31.68
2018-09-17T11:49:37.221Z,31.61
2018-09-17T11:50:37.237Z,32.59
2018-09-17T11:51:37.245Z,33.27
2018-09-17T11:52:37.258Z,32.67
2018-09-17T11:53:37.296Z,32.17
2018-09-17T11:54:37.293Z,31.72
2018-09-17T11:55:37.308Z,31.45
2018-09-17T11:56:37.313Z,30.46
2018-09-17T11:57:37.334Z,30.40
2018-09-17T11:58:37.353Z,31.13
2018-09-17T11:59:37.361Z,31.55
2018-09-17T12:00:37.375Z,32.17
2018-09-17T12:01:37.408Z,31.73
2018-09-17T12:02:37.405Z,32.39
2018-09-17T12:03:37.420Z,32.98
2018-09-17T12:04:37.426Z,33.61
2018-09-17T12:05:37.442Z,34.26
2018-09-17T12:06:37.460Z,33.80
2018-09-17T12:07:37.477Z,33.41
2018-09-17T12:08:37.488Z,33.19
2018-09-17T12:09:37.506Z,32.36
2018-09-17T12:10:37.516Z,31.11
2018-09-17T12:11:37.531Z,30.52
2018-09-17T12:12:37.539Z,29.82
2018-09-17T12:13:37.549Z,29.52
2018-09-17T12:14:37.566Z,28.88
2018-09-17T12:15:37.583Z,28.35
2018-09-17T12:16:37.600Z,27.67
2018-09-17T12:17:37.601Z,27.48
2018-09-17T12:18:37.625Z,27.76
2018-09-17T12:19:37.628Z,27.69
2018-09-17T12:20:37.641Z,27.70
2018-09-17T12:21:37.648Z,27.73
2018-09-17T12:22:37.655Z,27.71
2018-09-17T12:23:37.670Z,27.58
2018-09-17T12:24:37.675Z,27.54
2018-09-17T12:25:37.683Z,27.48
2018-09-17T12:26:37.694Z,27.39
2018-09-17T12:27:37.696Z,27.38
2018-09-17T12:28:37.713Z,27.42
2018-09-17T12:29:37.719Z,27.51
2018-09-17T12:30:37.719Z,27.01
2018-09-17T12:31:37.729Z,26.80
2018-09-17T12:32:37.733Z,26.49
2018-09-17T12:33:37.795Z,26.47
2018-09-17T12:34:37.747Z,26.67
2018-09-17T12:35:37.753Z,26.86
2018-09-17T12:36:37.756Z,27.09
2018-09-17T12:37:37.768Z,27.09
2018-09-17T12:38:37.767Z,26.87
2018-09-17T12:39:37.772Z,26.74
2018-09-17T12:40:37.777Z,26.80
2018-09-17T12:41:37.777Z,26.94
2018-09-17T12:42:37.785Z,27.13
2018-09-17T12:43:37.794Z,27.17
2018-09-17T12:44:37.791Z,27.21
2018-09-17T12:45:37.805Z,27.24
2018-09-17T12:46:37.809Z,26.73
2018-09-17T12:47:37.816Z,26.31
2018-09-17T12:48:37.815Z,26.11
2018-09-17T12:49:37.819Z,26.09
2018-09-17T12:50:37.824Z,26.05
2018-09-17T12:51:37.830Z,26.11
2018-09-17T12:52:37.834Z,26.15
2018-09-17T12:53:37.839Z,26.25
2018-09-17T12:54:37.860Z,26.27
2018-09-17T12:55:37.846Z,26.29
2018-09-17T12:56:37.839Z,26.40
2018-09-17T12:57:37.846Z,26.44
2018-09-17T12:58:37.855Z,26.29
2018-09-17T12:59:37.854Z,26.22
2018-09-17T13:00:37.858Z,26.28
2018-09-17T13:01:37.862Z,26.32
2018-09-17T13:02:37.867Z,26.32
2018-09-17T13:03:37.868Z,26.31
2018-09-17T13:04:37.867Z,26.36
2018-09-17T13:05:37.884Z,26.54
2018-09-17T13:06:37.880Z,26.64
2018-09-17T13:07:37.880Z,26.61
2018-09-17T13:08:37.887Z,26.54
2018-09-17T13:09:37.889Z,26.55
2018-09-17T13:10:37.892Z,26.54
2018-09-17T13:11:37.894Z,26.50
2018-09-17T13:12:37.892Z,26.46
2018-09-17T13:13:37.899Z,26.46
2018-09-17T13:14:37.939Z,26.43
2018-09-17T13:15:37.905Z,26.36
2018-09-17T13:16:37.904Z,26.59
2018-09-17T13:17:37.905Z,26.57
2018-09-17T13:18:37.918Z,26.58
2018-09-17T13:19:37.919Z,26.64
2018-09-17T13:20:37.913Z,26.67
2018-09-17T13:21:37.928Z,26.67
2018-09-17T13:22:37.946Z,26.77
2018-09-17T13:23:37.927Z,26.72
2018-09-17T13:24:37.940Z,26.68
2018-09-17T13:25:37.934Z,26.68
2018-09-17T13:26:37.931Z,26.68
2018-09-17T13:27:37.938Z,26.68
2018-09-17T13:28:37.939Z,26.72